sensor_id;sensor_type;location;lat;lon;timestamp;P1;durP1;ratioP1;P2;durP2;ratioP2
16189;SDS011;41754;51.498;7.540;2023-02-15T00:02:02;19.13;;;15.20;;
16189;SDS011;41754;51.498;7.540;2023-02-15T00:04:30;19.17;;;14.87;;
16189;SDS011;41754;51.498;7.540;2023-02-15T00:07:16;19.33;;;15.33;;
16189;SDS011;41754;51.498;7.540;2023-02-15T00:09:45;20.73;;;14.97;;
16189;SDS011;41754;51.498;7.540;2023-02-15T00:12:14;20.03;;;15.43;;
16189;SDS011;41754;51.498;7.540;2023-02-15T00:14:42;22.07;;;16.00;;
16189;SDS011;41754;51.498;7.540;2023-02-15T00:17:11;20.10;;;16.03;;
16189;SDS011;41754;51.498;7.540;2023-02-15T00:19:38;19.27;;;15.03;;
16189;SDS011;41754;51.498;7.540;2023-02-15T00:22:07;20.43;;;16.23;;
16189;SDS011;41754;51.498;7.540;2023-02-15T00:24:37;18.90;;;14.87;;
16189;SDS011;41754;51.498;7.540;2023-02-15T00:27:04;21.47;;;16.53;;
16189;SDS011;41754;51.498;7.540;2023-02-15T00:29:32;20.63;;;15.27;;
16189;SDS011;41754;51.498;7.540;2023-02-15T00:32:00;20.07;;;16.13;;
16189;SDS011;41754;51.498;7.540;2023-02-15T00:34:28;19.03;;;15.33;;
16189;SDS011;41754;51.498;7.540;2023-02-15T00:36:56;18.13;;;14.80;;
16189;SDS011;41754;51.498;7.540;2023-02-15T00:39:24;20.97;;;16.43;;
16189;SDS011;41754;51.498;7.540;2023-02-15T00:41:54;24.13;;;17.40;;
16189;SDS011;41754;51.498;7.540;2023-02-15T00:44:22;21.20;;;17.10;;
16189;SDS011;41754;51.498;7.540;2023-02-15T00:46:50;20.63;;;15.87;;
16189;SDS011;41754;51.498;7.540;2023-02-15T00:49:19;19.93;;;15.50;;
16189;SDS011;41754;51.498;7.540;2023-02-15T00:51:47;20.63;;;16.53;;
16189;SDS011;41754;51.498;7.540;2023-02-15T00:54:15;21.37;;;15.90;;
16189;SDS011;41754;51.498;7.540;2023-02-15T00:56:43;21.17;;;16.30;;
16189;SDS011;41754;51.498;7.540;2023-02-15T00:59:12;20.57;;;16.77;;
16189;SDS011;41754;51.498;7.540;2023-02-15T01:01:40;21.83;;;15.93;;
16189;SDS011;41754;51.498;7.540;2023-02-15T01:04:08;20.77;;;16.43;;
16189;SDS011;41754;51.498;7.540;2023-02-15T01:06:36;21.47;;;16.83;;
16189;SDS011;41754;51.498;7.540;2023-02-15T01:09:03;21.13;;;16.87;;
16189;SDS011;41754;51.498;7.540;2023-02-15T01:11:31;21.97;;;16.87;;
16189;SDS011;41754;51.498;7.540;2023-02-15T01:13:59;22.73;;;17.23;;
16189;SDS011;41754;51.498;7.540;2023-02-15T01:16:30;20.27;;;16.23;;
16189;SDS011;41754;51.498;7.540;2023-02-15T01:18:58;19.97;;;16.10;;
16189;SDS011;41754;51.498;7.540;2023-02-15T01:21:26;23.87;;;17.50;;
16189;SDS011;41754;51.498;7.540;2023-02-15T01:23:54;24.00;;;17.47;;
16189;SDS011;41754;51.498;7.540;2023-02-15T01:26:21;20.80;;;17.07;;
16189;SDS011;41754;51.498;7.540;2023-02-15T01:28:49;20.40;;;15.83;;
16189;SDS011;41754;51.498;7.540;2023-02-15T01:31:19;21.33;;;17.23;;
16189;SDS011;41754;51.498;7.540;2023-02-15T01:33:49;22.30;;;17.73;;
16189;SDS011;41754;51.498;7.540;2023-02-15T01:36:17;22.87;;;17.07;;
16189;SDS011;41754;51.498;7.540;2023-02-15T01:38:45;23.07;;;17.00;;
16189;SDS011;41754;51.498;7.540;2023-02-15T01:41:13;21.20;;;16.67;;
16189;SDS011;41754;51.498;7.540;2023-02-15T01:43:50;22.47;;;16.93;;
16189;SDS011;41754;51.498;7.540;2023-02-15T01:46:22;22.10;;;16.97;;
16189;SDS011;41754;51.498;7.540;2023-02-15T01:48:54;24.40;;;17.47;;
16189;SDS011;41754;51.498;7.540;2023-02-15T01:51:30;22.33;;;16.60;;
16189;SDS011;41754;51.498;7.540;2023-02-15T01:54:02;20.87;;;16.63;;
16189;SDS011;41754;51.498;7.540;2023-02-15T01:56:34;23.53;;;17.77;;
16189;SDS011;41754;51.498;7.540;2023-02-15T01:59:04;23.97;;;17.87;;
16189;SDS011;41754;51.498;7.540;2023-02-15T02:01:35;24.90;;;17.83;;
16189;SDS011;41754;51.498;7.540;2023-02-15T02:04:07;24.57;;;18.17;;
16189;SDS011;41754;51.498;7.540;2023-02-15T02:06:38;23.43;;;17.77;;
16189;SDS011;41754;51.498;7.540;2023-02-15T02:09:06;22.17;;;17.67;;
16189;SDS011;41754;51.498;7.540;2023-02-15T02:11:34;24.77;;;17.57;;
16189;SDS011;41754;51.498;7.540;2023-02-15T02:14:02;21.77;;;16.83;;
16189;SDS011;41754;51.498;7.540;2023-02-15T02:16:32;24.87;;;17.97;;
16189;SDS011;41754;51.498;7.540;2023-02-15T02:25:22;24.50;;;18.00;;
16189;SDS011;41754;51.498;7.540;2023-02-15T02:28:08;23.80;;;17.67;;
16189;SDS011;41754;51.498;7.540;2023-02-15T02:30:57;23.47;;;18.37;;
16189;SDS011;41754;51.498;7.540;2023-02-15T02:33:48;24.80;;;18.67;;
16189;SDS011;41754;51.498;7.540;2023-02-15T02:36:29;23.70;;;17.50;;
16189;SDS011;41754;51.498;7.540;2023-02-15T02:39:07;24.03;;;18.03;;
16189;SDS011;41754;51.498;7.540;2023-02-15T02:41:47;22.97;;;17.37;;
16189;SDS011;41754;51.498;7.540;2023-02-15T02:44:24;24.23;;;18.03;;
16189;SDS011;41754;51.498;7.540;2023-02-15T02:46:57;27.30;;;19.47;;
16189;SDS011;41754;51.498;7.540;2023-02-15T02:49:32;25.07;;;18.03;;
16189;SDS011;41754;51.498;7.540;2023-02-15T02:52:02;24.13;;;18.40;;
16189;SDS011;41754;51.498;7.540;2023-02-15T02:54:32;25.93;;;18.57;;
16189;SDS011;41754;51.498;7.540;2023-02-15T02:57:03;25.00;;;18.73;;
16189;SDS011;41754;51.498;7.540;2023-02-15T02:59:36;25.93;;;19.37;;
16189;SDS011;41754;51.498;7.540;2023-02-15T03:02:09;23.77;;;18.43;;
16189;SDS011;41754;51.498;7.540;2023-02-15T03:04:43;24.50;;;18.63;;
16189;SDS011;41754;51.498;7.540;2023-02-15T03:07:16;24.53;;;18.67;;
16189;SDS011;41754;51.498;7.540;2023-02-15T03:09:49;25.43;;;18.50;;
16189;SDS011;41754;51.498;7.540;2023-02-15T03:12:19;24.87;;;18.50;;
16189;SDS011;41754;51.498;7.540;2023-02-15T03:14:51;25.80;;;18.90;;
16189;SDS011;41754;51.498;7.540;2023-02-15T03:17:22;24.23;;;18.17;;
16189;SDS011;41754;51.498;7.540;2023-02-15T03:19:54;24.00;;;18.03;;
16189;SDS011;41754;51.498;7.540;2023-02-15T03:22:26;24.97;;;18.30;;
16189;SDS011;41754;51.498;7.540;2023-02-15T03:24:59;26.80;;;19.53;;
16189;SDS011;41754;51.498;7.540;2023-02-15T03:27:31;24.30;;;19.27;;
16189;SDS011;41754;51.498;7.540;2023-02-15T03:30:02;24.00;;;19.07;;
16189;SDS011;41754;51.498;7.540;2023-02-15T03:32:34;22.47;;;18.43;;
16189;SDS011;41754;51.498;7.540;2023-02-15T03:35:06;23.37;;;18.30;;
16189;SDS011;41754;51.498;7.540;2023-02-15T03:37:35;23.67;;;19.33;;
16189;SDS011;41754;51.498;7.540;2023-02-15T03:40:07;26.03;;;19.43;;
16189;SDS011;41754;51.498;7.540;2023-02-15T03:42:58;24.93;;;18.97;;
16189;SDS011;41754;51.498;7.540;2023-02-15T03:45:38;26.63;;;19.67;;
16189;SDS011;41754;51.498;7.540;2023-02-15T03:48:22;24.43;;;19.33;;
16189;SDS011;41754;51.498;7.540;2023-02-15T03:50:54;31.53;;;20.83;;
16189;SDS011;41754;51.498;7.540;2023-02-15T03:53:43;28.10;;;20.67;;
16189;SDS011;41754;51.498;7.540;2023-02-15T03:56:13;26.80;;;20.30;;
16189;SDS011;41754;51.498;7.540;2023-02-15T03:58:41;27.23;;;20.63;;
16189;SDS011;41754;51.498;7.540;2023-02-15T04:01:26;23.97;;;19.63;;
16189;SDS011;41754;51.498;7.540;2023-02-15T04:04:26;24.50;;;19.63;;
16189;SDS011;41754;51.498;7.540;2023-02-15T04:07:00;27.30;;;20.27;;
16189;SDS011;41754;51.498;7.540;2023-02-15T04:09:28;26.70;;;21.03;;
16189;SDS011;41754;51.498;7.540;2023-02-15T04:12:13;26.23;;;19.97;;
16189;SDS011;41754;51.498;7.540;2023-02-15T04:14:41;24.67;;;20.10;;
16189;SDS011;41754;51.498;7.540;2023-02-15T04:17:27;27.90;;;20.23;;
16189;SDS011;41754;51.498;7.540;2023-02-15T04:19:55;25.57;;;21.20;;
16189;SDS011;41754;51.498;7.540;2023-02-15T04:22:42;24.83;;;19.97;;
16189;SDS011;41754;51.498;7.540;2023-02-15T04:25:27;25.50;;;19.40;;
16189;SDS011;41754;51.498;7.540;2023-02-15T04:27:55;27.10;;;21.67;;
16189;SDS011;41754;51.498;7.540;2023-02-15T04:30:24;25.10;;;19.63;;
16189;SDS011;41754;51.498;7.540;2023-02-15T04:32:53;26.03;;;20.20;;
16189;SDS011;41754;51.498;7.540;2023-02-15T04:35:21;26.57;;;20.50;;
16189;SDS011;41754;51.498;7.540;2023-02-15T04:37:51;26.73;;;20.47;;
16189;SDS011;41754;51.498;7.540;2023-02-15T04:40:18;28.97;;;19.93;;
16189;SDS011;41754;51.498;7.540;2023-02-15T04:42:47;24.40;;;19.93;;
16189;SDS011;41754;51.498;7.540;2023-02-15T04:45:15;25.60;;;19.37;;
16189;SDS011;41754;51.498;7.540;2023-02-15T04:47:43;26.60;;;20.07;;
16189;SDS011;41754;51.498;7.540;2023-02-15T04:50:11;26.27;;;20.33;;
16189;SDS011;41754;51.498;7.540;2023-02-15T04:52:39;27.63;;;20.37;;
16189;SDS011;41754;51.498;7.540;2023-02-15T04:55:08;28.83;;;20.73;;
16189;SDS011;41754;51.498;7.540;2023-02-15T04:57:36;28.00;;;20.63;;
16189;SDS011;41754;51.498;7.540;2023-02-15T05:00:04;27.17;;;20.77;;
16189;SDS011;41754;51.498;7.540;2023-02-15T05:02:34;26.87;;;21.17;;
16189;SDS011;41754;51.498;7.540;2023-02-15T05:05:02;27.97;;;21.53;;
16189;SDS011;41754;51.498;7.540;2023-02-15T05:07:30;28.00;;;21.43;;
16189;SDS011;41754;51.498;7.540;2023-02-15T05:09:58;28.27;;;21.17;;
16189;SDS011;41754;51.498;7.540;2023-02-15T05:12:27;24.87;;;19.63;;
16189;SDS011;41754;51.498;7.540;2023-02-15T05:14:55;25.23;;;20.80;;
16189;SDS011;41754;51.498;7.540;2023-02-15T05:17:23;26.97;;;20.27;;
16189;SDS011;41754;51.498;7.540;2023-02-15T05:19:51;30.40;;;22.33;;
16189;SDS011;41754;51.498;7.540;2023-02-15T05:22:19;28.53;;;21.30;;
16189;SDS011;41754;51.498;7.540;2023-02-15T05:24:46;26.07;;;19.77;;
16189;SDS011;41754;51.498;7.540;2023-02-15T05:27:33;27.03;;;20.20;;
16189;SDS011;41754;51.498;7.540;2023-02-15T05:30:19;27.57;;;21.30;;
16189;SDS011;41754;51.498;7.540;2023-02-15T05:32:47;28.80;;;20.97;;
16189;SDS011;41754;51.498;7.540;2023-02-15T05:35:15;29.00;;;21.50;;
16189;SDS011;41754;51.498;7.540;2023-02-15T05:37:43;27.77;;;21.00;;
16189;SDS011;41754;51.498;7.540;2023-02-15T05:40:11;27.83;;;20.57;;
16189;SDS011;41754;51.498;7.540;2023-02-15T05:42:40;27.87;;;20.87;;
16189;SDS011;41754;51.498;7.540;2023-02-15T05:45:08;27.17;;;21.23;;
16189;SDS011;41754;51.498;7.540;2023-02-15T05:47:36;30.80;;;21.17;;
16189;SDS011;41754;51.498;7.540;2023-02-15T05:50:04;29.60;;;21.93;;
16189;SDS011;41754;51.498;7.540;2023-02-15T05:52:33;30.13;;;21.87;;
16189;SDS011;41754;51.498;7.540;2023-02-15T05:55:01;32.40;;;22.27;;
16189;SDS011;41754;51.498;7.540;2023-02-15T05:57:30;29.23;;;21.43;;
16189;SDS011;41754;51.498;7.540;2023-02-15T05:59:59;28.00;;;20.60;;
16189;SDS011;41754;51.498;7.540;2023-02-15T06:02:37;31.50;;;22.27;;
16189;SDS011;41754;51.498;7.540;2023-02-15T06:05:05;27.40;;;20.47;;
16189;SDS011;41754;51.498;7.540;2023-02-15T06:07:34;33.17;;;23.60;;
16189;SDS011;41754;51.498;7.540;2023-02-15T06:10:02;30.37;;;21.70;;
16189;SDS011;41754;51.498;7.540;2023-02-15T06:12:31;29.50;;;22.07;;
16189;SDS011;41754;51.498;7.540;2023-02-15T06:15:00;27.83;;;20.97;;
16189;SDS011;41754;51.498;7.540;2023-02-15T06:17:28;27.80;;;21.47;;
16189;SDS011;41754;51.498;7.540;2023-02-15T06:19:56;28.13;;;21.87;;
16189;SDS011;41754;51.498;7.540;2023-02-15T06:22:23;28.20;;;20.83;;
16189;SDS011;41754;51.498;7.540;2023-02-15T06:24:51;27.47;;;21.07;;
16189;SDS011;41754;51.498;7.540;2023-02-15T06:27:19;28.00;;;20.90;;
16189;SDS011;41754;51.498;7.540;2023-02-15T06:29:47;27.40;;;20.43;;
16189;SDS011;41754;51.498;7.540;2023-02-15T06:32:16;24.73;;;19.80;;
16189;SDS011;41754;51.498;7.540;2023-02-15T06:34:44;30.10;;;20.97;;
16189;SDS011;41754;51.498;7.540;2023-02-15T06:37:14;28.03;;;20.67;;
16189;SDS011;41754;51.498;7.540;2023-02-15T06:39:41;27.80;;;20.97;;
16189;SDS011;41754;51.498;7.540;2023-02-15T06:42:10;25.43;;;20.43;;
16189;SDS011;41754;51.498;7.540;2023-02-15T06:44:38;27.30;;;20.83;;
16189;SDS011;41754;51.498;7.540;2023-02-15T06:47:05;27.10;;;20.60;;
16189;SDS011;41754;51.498;7.540;2023-02-15T06:49:35;26.53;;;19.97;;
16189;SDS011;41754;51.498;7.540;2023-02-15T06:52:02;27.70;;;21.23;;
16189;SDS011;41754;51.498;7.540;2023-02-15T06:54:31;30.77;;;21.37;;
16189;SDS011;41754;51.498;7.540;2023-02-15T06:56:59;27.07;;;20.53;;
16189;SDS011;41754;51.498;7.540;2023-02-15T06:59:26;28.63;;;20.53;;
16189;SDS011;41754;51.498;7.540;2023-02-15T07:01:54;26.87;;;19.10;;
16189;SDS011;41754;51.498;7.540;2023-02-15T07:04:22;28.93;;;21.27;;
16189;SDS011;41754;51.498;7.540;2023-02-15T07:06:51;26.13;;;20.23;;
16189;SDS011;41754;51.498;7.540;2023-02-15T07:09:19;28.73;;;20.17;;
16189;SDS011;41754;51.498;7.540;2023-02-15T07:11:47;26.73;;;19.90;;
16189;SDS011;41754;51.498;7.540;2023-02-15T07:14:31;28.30;;;19.70;;
16189;SDS011;41754;51.498;7.540;2023-02-15T07:16:59;24.90;;;18.70;;
16189;SDS011;41754;51.498;7.540;2023-02-15T07:19:27;24.40;;;18.93;;
16189;SDS011;41754;51.498;7.540;2023-02-15T07:21:56;26.77;;;19.33;;
16189;SDS011;41754;51.498;7.540;2023-02-15T07:24:24;24.97;;;17.93;;
16189;SDS011;41754;51.498;7.540;2023-02-15T07:26:52;23.37;;;18.50;;
16189;SDS011;41754;51.498;7.540;2023-02-15T07:29:19;24.67;;;18.03;;
16189;SDS011;41754;51.498;7.540;2023-02-15T07:31:47;23.73;;;18.60;;
16189;SDS011;41754;51.498;7.540;2023-02-15T07:34:15;26.27;;;18.73;;
16189;SDS011;41754;51.498;7.540;2023-02-15T07:36:43;22.20;;;17.20;;
16189;SDS011;41754;51.498;7.540;2023-02-15T07:39:13;31.40;;;18.73;;
16189;SDS011;41754;51.498;7.540;2023-02-15T07:41:41;22.03;;;16.10;;
16189;SDS011;41754;51.498;7.540;2023-02-15T07:44:11;24.33;;;16.67;;
16189;SDS011;41754;51.498;7.540;2023-02-15T07:46:39;23.97;;;17.57;;
16189;SDS011;41754;51.498;7.540;2023-02-15T07:49:07;24.33;;;16.57;;
16189;SDS011;41754;51.498;7.540;2023-02-15T07:51:35;21.20;;;16.27;;
16189;SDS011;41754;51.498;7.540;2023-02-15T07:54:03;22.00;;;17.10;;
16189;SDS011;41754;51.498;7.540;2023-02-15T07:56:32;24.47;;;16.93;;
16189;SDS011;41754;51.498;7.540;2023-02-15T07:59:02;22.00;;;16.93;;
16189;SDS011;41754;51.498;7.540;2023-02-15T08:01:32;23.10;;;16.27;;
16189;SDS011;41754;51.498;7.540;2023-02-15T08:04:02;23.73;;;17.33;;
16189;SDS011;41754;51.498;7.540;2023-02-15T08:06:31;22.87;;;15.20;;
16189;SDS011;41754;51.498;7.540;2023-02-15T08:09:01;21.33;;;16.27;;
16189;SDS011;41754;51.498;7.540;2023-02-15T08:11:33;22.57;;;16.40;;
16189;SDS011;41754;51.498;7.540;2023-02-15T08:14:06;20.17;;;15.43;;
16189;SDS011;41754;51.498;7.540;2023-02-15T08:16:36;19.27;;;14.27;;
16189;SDS011;41754;51.498;7.540;2023-02-15T08:19:06;21.03;;;15.07;;
16189;SDS011;41754;51.498;7.540;2023-02-15T08:21:36;21.33;;;15.27;;
16189;SDS011;41754;51.498;7.540;2023-02-15T08:24:05;20.33;;;14.30;;
16189;SDS011;41754;51.498;7.540;2023-02-15T08:26:36;19.70;;;14.00;;
16189;SDS011;41754;51.498;7.540;2023-02-15T08:29:07;22.67;;;15.53;;
16189;SDS011;41754;51.498;7.540;2023-02-15T08:31:36;22.37;;;15.70;;
16189;SDS011;41754;51.498;7.540;2023-02-15T08:34:04;21.53;;;14.53;;
16189;SDS011;41754;51.498;7.540;2023-02-15T08:36:32;19.33;;;14.60;;
16189;SDS011;41754;51.498;7.540;2023-02-15T08:39:02;25.63;;;15.73;;
16189;SDS011;41754;51.498;7.540;2023-02-15T08:41:31;23.13;;;15.17;;
16189;SDS011;41754;51.498;7.540;2023-02-15T08:44:04;22.50;;;14.73;;
16189;SDS011;41754;51.498;7.540;2023-02-15T08:46:35;22.00;;;14.47;;
16189;SDS011;41754;51.498;7.540;2023-02-15T08:49:05;20.00;;;13.43;;
16189;SDS011;41754;51.498;7.540;2023-02-15T08:51:34;21.53;;;14.07;;
16189;SDS011;41754;51.498;7.540;2023-02-15T08:54:04;19.93;;;13.97;;
16189;SDS011;41754;51.498;7.540;2023-02-15T08:56:33;19.27;;;13.87;;
16189;SDS011;41754;51.498;7.540;2023-02-15T08:59:04;16.97;;;13.27;;
16189;SDS011;41754;51.498;7.540;2023-02-15T09:01:33;20.80;;;13.57;;
16189;SDS011;41754;51.498;7.540;2023-02-15T09:04:03;19.53;;;13.57;;
16189;SDS011;41754;51.498;7.540;2023-02-15T09:06:35;17.77;;;13.63;;
16189;SDS011;41754;51.498;7.540;2023-02-15T09:09:03;19.03;;;13.53;;
16189;SDS011;41754;51.498;7.540;2023-02-15T09:11:33;19.67;;;13.60;;
16189;SDS011;41754;51.498;7.540;2023-02-15T09:14:04;18.83;;;13.33;;
16189;SDS011;41754;51.498;7.540;2023-02-15T09:16:35;18.57;;;13.50;;
16189;SDS011;41754;51.498;7.540;2023-02-15T09:19:04;18.87;;;12.87;;
16189;SDS011;41754;51.498;7.540;2023-02-15T09:21:33;17.40;;;12.67;;
16189;SDS011;41754;51.498;7.540;2023-02-15T09:24:04;22.23;;;13.27;;
16189;SDS011;41754;51.498;7.540;2023-02-15T09:26:34;20.10;;;12.03;;
16189;SDS011;41754;51.498;7.540;2023-02-15T09:29:04;19.47;;;12.90;;
16189;SDS011;41754;51.498;7.540;2023-02-15T09:31:33;18.57;;;12.83;;
16189;SDS011;41754;51.498;7.540;2023-02-15T09:34:04;15.80;;;12.43;;
16189;SDS011;41754;51.498;7.540;2023-02-15T09:36:33;18.90;;;12.73;;
16189;SDS011;41754;51.498;7.540;2023-02-15T09:39:04;20.80;;;12.20;;
16189;SDS011;41754;51.498;7.540;2023-02-15T09:41:38;18.53;;;11.57;;
16189;SDS011;41754;51.498;7.540;2023-02-15T09:44:27;23.97;;;12.83;;
16189;SDS011;41754;51.498;7.540;2023-02-15T09:47:11;17.17;;;11.60;;
16189;SDS011;41754;51.498;7.540;2023-02-15T09:49:51;17.10;;;11.30;;
16189;SDS011;41754;51.498;7.540;2023-02-15T09:52:33;17.73;;;12.20;;
16189;SDS011;41754;51.498;7.540;2023-02-15T09:55:20;17.60;;;11.87;;
16189;SDS011;41754;51.498;7.540;2023-02-15T09:58:03;17.05;;;12.30;;
16189;SDS011;41754;51.498;7.540;2023-02-15T10:00:42;14.07;;;10.90;;
16189;SDS011;41754;51.498;7.540;2023-02-15T10:03:24;16.15;;;11.27;;
16189;SDS011;41754;51.498;7.540;2023-02-15T10:06:09;15.50;;;11.15;;
16189;SDS011;41754;51.498;7.540;2023-02-15T10:08:52;15.57;;;11.05;;
16189;SDS011;41754;51.498;7.540;2023-02-15T10:11:31;14.18;;;10.85;;
16189;SDS011;41754;51.498;7.540;2023-02-15T10:14:22;18.75;;;10.95;;
16189;SDS011;41754;51.498;7.540;2023-02-15T10:17:08;16.60;;;10.27;;
16189;SDS011;41754;51.498;7.540;2023-02-15T10:19:46;12.60;;;10.23;;
16189;SDS011;41754;51.498;7.540;2023-02-15T10:22:28;15.07;;;10.98;;
16189;SDS011;41754;51.498;7.540;2023-02-15T10:25:13;14.85;;;10.38;;
16189;SDS011;41754;51.498;7.540;2023-02-15T10:27:55;18.17;;;11.35;;
16189;SDS011;41754;51.498;7.540;2023-02-15T10:30:32;19.95;;;12.25;;
16189;SDS011;41754;51.498;7.540;2023-02-15T10:33:12;16.63;;;10.85;;
16189;SDS011;41754;51.498;7.540;2023-02-15T10:35:53;15.75;;;10.82;;
16189;SDS011;41754;51.498;7.540;2023-02-15T10:38:33;16.20;;;11.43;;
16189;SDS011;41754;51.498;7.540;2023-02-15T10:41:09;15.13;;;10.38;;
16189;SDS011;41754;51.498;7.540;2023-02-15T10:43:56;16.52;;;10.93;;
16189;SDS011;41754;51.498;7.540;2023-02-15T10:46:36;14.95;;;11.02;;
16189;SDS011;41754;51.498;7.540;2023-02-15T10:49:26;16.85;;;10.32;;
16189;SDS011;41754;51.498;7.540;2023-02-15T10:52:09;16.13;;;10.52;;
16189;SDS011;41754;51.498;7.540;2023-02-15T10:54:48;14.10;;;10.25;;
16189;SDS011;41754;51.498;7.540;2023-02-15T10:57:26;12.90;;;9.55;;
16189;SDS011;41754;51.498;7.540;2023-02-15T11:00:03;14.15;;;10.02;;
16189;SDS011;41754;51.498;7.540;2023-02-15T11:02:42;14.95;;;10.05;;
16189;SDS011;41754;51.498;7.540;2023-02-15T11:05:23;14.27;;;10.00;;
16189;SDS011;41754;51.498;7.540;2023-02-15T11:07:58;13.13;;;9.57;;
16189;SDS011;41754;51.498;7.540;2023-02-15T11:10:30;11.90;;;9.05;;
16189;SDS011;41754;51.498;7.540;2023-02-15T11:13:02;12.13;;;9.30;;
16189;SDS011;41754;51.498;7.540;2023-02-15T11:15:36;13.20;;;9.95;;
16189;SDS011;41754;51.498;7.540;2023-02-15T11:18:10;12.27;;;9.20;;
16189;SDS011;41754;51.498;7.540;2023-02-15T11:20:43;13.75;;;9.70;;
16189;SDS011;41754;51.498;7.540;2023-02-15T11:23:17;10.55;;;9.32;;
16189;SDS011;41754;51.498;7.540;2023-02-15T11:25:45;12.65;;;8.98;;
16189;SDS011;41754;51.498;7.540;2023-02-15T11:28:22;11.30;;;8.70;;
16189;SDS011;41754;51.498;7.540;2023-02-15T11:30:54;11.60;;;8.30;;
16189;SDS011;41754;51.498;7.540;2023-02-15T11:33:25;10.75;;;8.52;;
16189;SDS011;41754;51.498;7.540;2023-02-15T11:36:00;11.35;;;7.97;;
16189;SDS011;41754;51.498;7.540;2023-02-15T11:38:33;12.57;;;9.85;;
16189;SDS011;41754;51.498;7.540;2023-02-15T11:41:02;11.70;;;8.65;;
16189;SDS011;41754;51.498;7.540;2023-02-15T11:43:33;11.18;;;7.80;;
16189;SDS011;41754;51.498;7.540;2023-02-15T11:46:05;11.68;;;7.93;;
16189;SDS011;41754;51.498;7.540;2023-02-15T11:48:37;10.48;;;8.05;;
16189;SDS011;41754;51.498;7.540;2023-02-15T11:51:09;12.85;;;8.23;;
16189;SDS011;41754;51.498;7.540;2023-02-15T11:53:42;10.85;;;7.78;;
16189;SDS011;41754;51.498;7.540;2023-02-15T11:56:14;9.57;;;7.75;;
16189;SDS011;41754;51.498;7.540;2023-02-15T11:58:44;9.60;;;7.95;;
16189;SDS011;41754;51.498;7.540;2023-02-15T12:01:16;10.82;;;8.30;;
16189;SDS011;41754;51.498;7.540;2023-02-15T12:03:49;10.60;;;8.10;;
16189;SDS011;41754;51.498;7.540;2023-02-15T12:06:22;11.05;;;8.50;;
16189;SDS011;41754;51.498;7.540;2023-02-15T12:09:00;9.85;;;8.07;;
16189;SDS011;41754;51.498;7.540;2023-02-15T12:11:34;11.35;;;8.23;;
16189;SDS011;41754;51.498;7.540;2023-02-15T12:14:04;9.82;;;7.72;;
16189;SDS011;41754;51.498;7.540;2023-02-15T12:16:34;8.40;;;7.47;;
16189;SDS011;41754;51.498;7.540;2023-02-15T12:19:13;10.10;;;7.65;;
16189;SDS011;41754;51.498;7.540;2023-02-15T12:21:53;11.43;;;8.38;;
16189;SDS011;41754;51.498;7.540;2023-02-15T12:24:21;9.00;;;7.72;;
16189;SDS011;41754;51.498;7.540;2023-02-15T12:26:57;9.25;;;7.07;;
16189;SDS011;41754;51.498;7.540;2023-02-15T12:29:29;8.27;;;6.85;;
16189;SDS011;41754;51.498;7.540;2023-02-15T12:32:02;8.52;;;6.78;;
16189;SDS011;41754;51.498;7.540;2023-02-15T12:34:32;8.00;;;6.35;;
16189;SDS011;41754;51.498;7.540;2023-02-15T12:37:09;8.43;;;6.60;;
16189;SDS011;41754;51.498;7.540;2023-02-15T12:39:50;9.98;;;6.82;;
16189;SDS011;41754;51.498;7.540;2023-02-15T12:42:20;13.32;;;7.63;;
16189;SDS011;41754;51.498;7.540;2023-02-15T12:44:58;8.23;;;6.63;;
16189;SDS011;41754;51.498;7.540;2023-02-15T12:47:28;9.80;;;7.35;;
16189;SDS011;41754;51.498;7.540;2023-02-15T12:50:04;10.13;;;6.38;;
16189;SDS011;41754;51.498;7.540;2023-02-15T12:52:50;8.02;;;6.85;;
16189;SDS011;41754;51.498;7.540;2023-02-15T12:55:20;8.80;;;7.03;;
16189;SDS011;41754;51.498;7.540;2023-02-15T12:58:04;8.48;;;6.57;;
16189;SDS011;41754;51.498;7.540;2023-02-15T13:00:33;8.55;;;6.65;;
16189;SDS011;41754;51.498;7.540;2023-02-15T13:03:01;9.15;;;7.38;;
16189;SDS011;41754;51.498;7.540;2023-02-15T13:05:34;9.10;;;7.07;;
16189;SDS011;41754;51.498;7.540;2023-02-15T13:08:10;7.43;;;6.63;;
16189;SDS011;41754;51.498;7.540;2023-02-15T13:10:42;9.38;;;7.13;;
16189;SDS011;41754;51.498;7.540;2023-02-15T13:13:22;8.48;;;7.15;;
16189;SDS011;41754;51.498;7.540;2023-02-15T13:15:53;9.35;;;7.38;;
16189;SDS011;41754;51.498;7.540;2023-02-15T13:18:28;8.77;;;7.03;;
16189;SDS011;41754;51.498;7.540;2023-02-15T13:21:00;8.82;;;7.20;;
16189;SDS011;41754;51.498;7.540;2023-02-15T13:23:38;9.10;;;7.30;;
16189;SDS011;41754;51.498;7.540;2023-02-15T13:26:09;9.77;;;7.25;;
16189;SDS011;41754;51.498;7.540;2023-02-15T13:28:42;10.05;;;7.75;;
16189;SDS011;41754;51.498;7.540;2023-02-15T13:31:14;9.10;;;6.88;;
16189;SDS011;41754;51.498;7.540;2023-02-15T13:33:45;10.52;;;7.40;;
16189;SDS011;41754;51.498;7.540;2023-02-15T13:36:18;8.77;;;7.13;;
16189;SDS011;41754;51.498;7.540;2023-02-15T13:41:51;12.77;;;7.25;;
16189;SDS011;41754;51.498;7.540;2023-02-15T13:44:27;10.95;;;7.30;;
16189;SDS011;41754;51.498;7.540;2023-02-15T13:47:11;11.10;;;7.57;;
16189;SDS011;41754;51.498;7.540;2023-02-15T13:49:50;8.48;;;7.10;;
16189;SDS011;41754;51.498;7.540;2023-02-15T13:52:32;9.63;;;6.90;;
16189;SDS011;41754;51.498;7.540;2023-02-15T13:55:17;9.13;;;7.18;;
16189;SDS011;41754;51.498;7.540;2023-02-15T14:00:47;11.45;;;8.32;;
16189;SDS011;41754;51.498;7.540;2023-02-15T14:06:33;10.65;;;7.97;;
16189;SDS011;41754;51.498;7.540;2023-02-15T14:09:16;11.07;;;8.00;;
16189;SDS011;41754;51.498;7.540;2023-02-15T14:12:01;11.38;;;8.38;;
16189;SDS011;41754;51.498;7.540;2023-02-15T14:14:43;9.07;;;6.88;;
16189;SDS011;41754;51.498;7.540;2023-02-15T14:17:36;10.75;;;7.68;;
16189;SDS011;41754;51.498;7.540;2023-02-15T14:20:15;13.48;;;8.65;;
16189;SDS011;41754;51.498;7.540;2023-02-15T14:22:50;11.52;;;8.40;;
16189;SDS011;41754;51.498;7.540;2023-02-15T14:25:30;11.25;;;8.50;;
16189;SDS011;41754;51.498;7.540;2023-02-15T14:28:05;9.65;;;7.60;;
16189;SDS011;41754;51.498;7.540;2023-02-15T14:30:39;9.95;;;7.38;;
16189;SDS011;41754;51.498;7.540;2023-02-15T14:33:18;9.15;;;7.72;;
16189;SDS011;41754;51.498;7.540;2023-02-15T14:36:01;11.65;;;8.70;;
16189;SDS011;41754;51.498;7.540;2023-02-15T14:38:37;14.10;;;9.07;;
16189;SDS011;41754;51.498;7.540;2023-02-15T14:41:15;11.02;;;8.07;;
16189;SDS011;41754;51.498;7.540;2023-02-15T14:43:51;11.30;;;8.60;;
16189;SDS011;41754;51.498;7.540;2023-02-15T14:46:30;12.07;;;8.90;;
16189;SDS011;41754;51.498;7.540;2023-02-15T14:49:04;10.95;;;8.57;;
16189;SDS011;41754;51.498;7.540;2023-02-15T14:57:33;10.07;;;8.65;;
16189;SDS011;41754;51.498;7.540;2023-02-15T15:00:28;10.75;;;9.27;;
16189;SDS011;41754;51.498;7.540;2023-02-15T15:02:58;11.43;;;8.63;;
16189;SDS011;41754;51.498;7.540;2023-02-15T15:05:29;9.93;;;8.05;;
16189;SDS011;41754;51.498;7.540;2023-02-15T15:08:01;12.88;;;8.57;;
16189;SDS011;41754;51.498;7.540;2023-02-15T15:16:25;11.18;;;8.23;;
16189;SDS011;41754;51.498;7.540;2023-02-15T15:18:57;13.65;;;9.45;;
16189;SDS011;41754;51.498;7.540;2023-02-15T15:24:48;11.15;;;8.48;;
16189;SDS011;41754;51.498;7.540;2023-02-15T15:36:50;11.95;;;8.95;;
16189;SDS011;41754;51.498;7.540;2023-02-15T15:39:49;14.75;;;10.18;;